Plano's Hourly Summary for Wednesday, March 15, 2017
Hour Temp
(f)
RH
(%)
Solar Rad.
(MJ/m2)
Rainfall
(in)
Wind
(mph)
3/15/2017 12:00 AM 52 43 0 0 3.39
3/15/2017 1:00 AM 50 43 0 0 4.89
3/15/2017 2:00 AM 47 48 0 0 4.35
3/15/2017 3:00 AM 46 51 0 0 3.98
3/15/2017 4:00 AM 45 53 0 0 4.23
3/15/2017 5:00 AM 45 55 0 0 4.84
3/15/2017 6:00 AM 44 57 0 0 3.83
3/15/2017 7:00 AM 44 60 0 0 4.57
3/15/2017 8:00 AM 44 63 0.01 0 5.13
3/15/2017 9:00 AM 44 63 0.2 0 5.33
3/15/2017 10:00 AM 45 60 0.69 0 5.34
3/15/2017 11:00 AM 48 57 1.52 0 5.22
3/15/2017 12:00 PM 49 55 1.79 0 5.7
3/15/2017 1:00 PM 51 52 1.78 0 5.07
3/15/2017 2:00 PM 54 48 2.53 0 5.59
3/15/2017 3:00 PM 58 44 2.8 0 5.2
3/15/2017 4:00 PM 60 42 2.51 0 5.62
3/15/2017 5:00 PM 61 43 1.89 0 4.55
3/15/2017 6:00 PM 62 43 1.32 0 4.75
3/15/2017 7:00 PM 62 43 0.6 0 4.46
3/15/2017 8:00 PM 60 46 0.06 0 3.28
3/15/2017 9:00 PM 59 50 0 0 2.9
3/15/2017 10:00 PM 57 52 0 0 3.07
3/15/2017 11:00 PM 56 53 0 0 3.35
Data Summary 51 51 17.70 0.00 4.53